Terminal Aerodrome Forecast
Issued by NWS

Home | Current Version | Previous Version | Text Only | Print | Product List | Glossary On
Versions: 1 2 3 4 5 6 7 8 9 10 11 12 13 14 15 16 17 18 19 20 21 22 23 24 25
000
FTUS43 KAPX 030520
TAFAPN
TAF
KAPN 030520Z 0306/0406 VRB03KT P6SM FEW120
      TEMPO 0306/0308 2SM BR
     FM030800 VRB03KT 2SM BR SCT120
      TEMPO 0308/0312 3/4SM BR SCT003
     FM031400 10005KT P6SM SCT080 BKN120
     FM031900 10007KT P6SM SHRA OVC035
     FM040100 00000KT 5SM BR SCT040=

USA.gov is the U.S. government's official web portal to all federal, state and local government web resources and services.